sensor_id;sensor_type;location;lat;lon;timestamp;P1;durP1;ratioP1;P2;durP2;ratioP2
49510;SDS011;35413;48.776;9.204;2022-08-19T00:01:25;9.30;;;7.88;;
49510;SDS011;35413;48.776;9.204;2022-08-19T00:03:52;9.13;;;7.88;;
49510;SDS011;35413;48.776;9.204;2022-08-19T00:06:18;9.27;;;7.68;;
49510;SDS011;35413;48.776;9.204;2022-08-19T00:08:44;10.20;;;7.53;;
49510;SDS011;35413;48.776;9.204;2022-08-19T00:11:10;11.55;;;8.65;;
49510;SDS011;35413;48.776;9.204;2022-08-19T00:13:36;11.75;;;8.25;;
49510;SDS011;35413;48.776;9.204;2022-08-19T00:16:02;10.10;;;8.27;;
49510;SDS011;35413;48.776;9.204;2022-08-19T00:18:28;9.43;;;7.53;;
49510;SDS011;35413;48.776;9.204;2022-08-19T00:20:54;9.60;;;7.47;;
49510;SDS011;35413;48.776;9.204;2022-08-19T00:23:20;8.65;;;7.40;;
49510;SDS011;35413;48.776;9.204;2022-08-19T00:25:45;9.52;;;7.78;;
49510;SDS011;35413;48.776;9.204;2022-08-19T00:28:11;10.15;;;8.00;;
49510;SDS011;35413;48.776;9.204;2022-08-19T00:30:37;10.30;;;7.55;;
49510;SDS011;35413;48.776;9.204;2022-08-19T00:33:03;9.38;;;7.50;;
49510;SDS011;35413;48.776;9.204;2022-08-19T00:35:28;8.80;;;7.80;;
49510;SDS011;35413;48.776;9.204;2022-08-19T00:37:54;8.43;;;7.15;;
49510;SDS011;35413;48.776;9.204;2022-08-19T00:40:21;10.23;;;8.32;;
49510;SDS011;35413;48.776;9.204;2022-08-19T00:42:47;9.85;;;7.93;;
49510;SDS011;35413;48.776;9.204;2022-08-19T00:45:17;11.02;;;8.30;;
49510;SDS011;35413;48.776;9.204;2022-08-19T00:47:45;9.35;;;7.65;;
49510;SDS011;35413;48.776;9.204;2022-08-19T00:50:11;15.35;;;9.05;;
49510;SDS011;35413;48.776;9.204;2022-08-19T00:52:41;10.07;;;8.38;;
49510;SDS011;35413;48.776;9.204;2022-08-19T00:55:10;8.65;;;7.18;;
49510;SDS011;35413;48.776;9.204;2022-08-19T00:57:42;9.77;;;8.27;;
49510;SDS011;35413;48.776;9.204;2022-08-19T01:02:41;10.05;;;7.80;;
49510;SDS011;35413;48.776;9.204;2022-08-19T01:05:08;8.90;;;7.72;;
49510;SDS011;35413;48.776;9.204;2022-08-19T01:07:37;9.88;;;8.20;;
49510;SDS011;35413;48.776;9.204;2022-08-19T01:10:05;10.82;;;7.85;;
49510;SDS011;35413;48.776;9.204;2022-08-19T01:12:33;9.40;;;7.85;;
49510;SDS011;35413;48.776;9.204;2022-08-19T01:14:59;10.48;;;8.63;;
49510;SDS011;35413;48.776;9.204;2022-08-19T01:17:25;11.20;;;8.55;;
49510;SDS011;35413;48.776;9.204;2022-08-19T01:19:50;11.35;;;8.02;;
49510;SDS011;35413;48.776;9.204;2022-08-19T01:24:45;9.38;;;7.53;;
49510;SDS011;35413;48.776;9.204;2022-08-19T01:27:11;11.40;;;8.10;;
49510;SDS011;35413;48.776;9.204;2022-08-19T01:29:38;9.90;;;7.85;;
49510;SDS011;35413;48.776;9.204;2022-08-19T01:32:06;9.75;;;8.25;;
49510;SDS011;35413;48.776;9.204;2022-08-19T01:34:36;10.60;;;8.05;;
49510;SDS011;35413;48.776;9.204;2022-08-19T01:37:05;11.32;;;8.20;;
49510;SDS011;35413;48.776;9.204;2022-08-19T01:39:35;11.10;;;7.28;;
49510;SDS011;35413;48.776;9.204;2022-08-19T01:42:03;8.80;;;7.82;;
49510;SDS011;35413;48.776;9.204;2022-08-19T01:44:29;10.15;;;8.07;;
49510;SDS011;35413;48.776;9.204;2022-08-19T01:46:55;10.88;;;8.25;;
49510;SDS011;35413;48.776;9.204;2022-08-19T01:49:21;9.40;;;8.02;;
49510;SDS011;35413;48.776;9.204;2022-08-19T01:51:49;12.77;;;8.23;;
49510;SDS011;35413;48.776;9.204;2022-08-19T01:54:16;10.20;;;7.60;;
49510;SDS011;35413;48.776;9.204;2022-08-19T01:56:43;12.18;;;8.30;;
49510;SDS011;35413;48.776;9.204;2022-08-19T01:59:10;9.73;;;8.32;;
49510;SDS011;35413;48.776;9.204;2022-08-19T02:01:39;10.67;;;9.13;;
49510;SDS011;35413;48.776;9.204;2022-08-19T02:04:05;11.95;;;8.45;;
49510;SDS011;35413;48.776;9.204;2022-08-19T02:06:30;10.93;;;8.70;;
49510;SDS011;35413;48.776;9.204;2022-08-19T02:08:57;10.40;;;8.30;;
49510;SDS011;35413;48.776;9.204;2022-08-19T02:11:32;10.80;;;8.27;;
49510;SDS011;35413;48.776;9.204;2022-08-19T02:14:03;12.00;;;8.45;;
49510;SDS011;35413;48.776;9.204;2022-08-19T02:16:30;9.80;;;8.07;;
49510;SDS011;35413;48.776;9.204;2022-08-19T02:18:57;11.30;;;8.57;;
49510;SDS011;35413;48.776;9.204;2022-08-19T02:21:26;11.40;;;8.65;;
49510;SDS011;35413;48.776;9.204;2022-08-19T02:23:53;11.90;;;9.23;;
49510;SDS011;35413;48.776;9.204;2022-08-19T02:26:20;13.10;;;8.95;;
49510;SDS011;35413;48.776;9.204;2022-08-19T02:28:46;11.45;;;9.10;;
49510;SDS011;35413;48.776;9.204;2022-08-19T02:31:15;10.27;;;8.55;;
49510;SDS011;35413;48.776;9.204;2022-08-19T02:33:43;11.32;;;9.13;;
49510;SDS011;35413;48.776;9.204;2022-08-19T02:36:10;11.55;;;9.50;;
49510;SDS011;35413;48.776;9.204;2022-08-19T02:38:37;11.90;;;8.80;;
49510;SDS011;35413;48.776;9.204;2022-08-19T02:41:05;12.23;;;9.18;;
49510;SDS011;35413;48.776;9.204;2022-08-19T02:43:34;12.52;;;10.30;;
49510;SDS011;35413;48.776;9.204;2022-08-19T02:46:24;13.90;;;9.55;;
49510;SDS011;35413;48.776;9.204;2022-08-19T02:48:53;11.25;;;9.20;;
49510;SDS011;35413;48.776;9.204;2022-08-19T02:51:23;12.93;;;9.45;;
49510;SDS011;35413;48.776;9.204;2022-08-19T02:53:51;11.73;;;9.75;;
49510;SDS011;35413;48.776;9.204;2022-08-19T02:56:18;12.40;;;10.00;;
49510;SDS011;35413;48.776;9.204;2022-08-19T02:58:44;11.75;;;9.07;;
49510;SDS011;35413;48.776;9.204;2022-08-19T03:01:10;12.73;;;9.93;;
49510;SDS011;35413;48.776;9.204;2022-08-19T03:03:37;12.63;;;9.77;;
49510;SDS011;35413;48.776;9.204;2022-08-19T03:06:04;13.93;;;10.48;;
49510;SDS011;35413;48.776;9.204;2022-08-19T03:08:30;11.88;;;9.43;;
49510;SDS011;35413;48.776;9.204;2022-08-19T03:10:55;12.10;;;9.35;;
49510;SDS011;35413;48.776;9.204;2022-08-19T03:13:21;13.80;;;9.93;;
49510;SDS011;35413;48.776;9.204;2022-08-19T03:15:48;15.02;;;9.98;;
49510;SDS011;35413;48.776;9.204;2022-08-19T03:18:14;12.60;;;10.07;;
49510;SDS011;35413;48.776;9.204;2022-08-19T03:20:50;14.30;;;9.77;;
49510;SDS011;35413;48.776;9.204;2022-08-19T03:23:20;13.55;;;10.35;;
49510;SDS011;35413;48.776;9.204;2022-08-19T03:25:47;13.68;;;10.35;;
49510;SDS011;35413;48.776;9.204;2022-08-19T03:28:15;12.70;;;9.70;;
49510;SDS011;35413;48.776;9.204;2022-08-19T03:30:41;14.32;;;9.95;;
49510;SDS011;35413;48.776;9.204;2022-08-19T03:33:19;12.55;;;9.93;;
49510;SDS011;35413;48.776;9.204;2022-08-19T03:35:45;12.82;;;10.52;;
49510;SDS011;35413;48.776;9.204;2022-08-19T03:38:10;11.50;;;9.73;;
49510;SDS011;35413;48.776;9.204;2022-08-19T03:40:36;13.75;;;10.95;;
49510;SDS011;35413;48.776;9.204;2022-08-19T03:43:02;13.40;;;10.43;;
49510;SDS011;35413;48.776;9.204;2022-08-19T03:45:27;13.88;;;10.60;;
49510;SDS011;35413;48.776;9.204;2022-08-19T03:47:53;11.90;;;10.02;;
49510;SDS011;35413;48.776;9.204;2022-08-19T03:50:20;13.63;;;10.77;;
49510;SDS011;35413;48.776;9.204;2022-08-19T03:52:49;13.02;;;10.40;;
49510;SDS011;35413;48.776;9.204;2022-08-19T03:55:16;12.63;;;10.35;;
49510;SDS011;35413;48.776;9.204;2022-08-19T03:57:42;13.20;;;9.95;;
49510;SDS011;35413;48.776;9.204;2022-08-19T04:00:10;14.80;;;10.60;;
49510;SDS011;35413;48.776;9.204;2022-08-19T04:02:36;13.95;;;10.77;;
49510;SDS011;35413;48.776;9.204;2022-08-19T04:05:02;13.13;;;10.15;;
49510;SDS011;35413;48.776;9.204;2022-08-19T04:07:27;14.63;;;10.77;;
49510;SDS011;35413;48.776;9.204;2022-08-19T04:09:53;13.55;;;10.43;;
49510;SDS011;35413;48.776;9.204;2022-08-19T04:12:19;13.65;;;10.60;;
49510;SDS011;35413;48.776;9.204;2022-08-19T04:14:45;12.43;;;9.65;;
49510;SDS011;35413;48.776;9.204;2022-08-19T04:17:11;13.77;;;10.50;;
49510;SDS011;35413;48.776;9.204;2022-08-19T04:19:38;15.00;;;10.88;;
49510;SDS011;35413;48.776;9.204;2022-08-19T04:22:04;14.55;;;11.40;;
49510;SDS011;35413;48.776;9.204;2022-08-19T04:24:30;12.60;;;10.23;;
49510;SDS011;35413;48.776;9.204;2022-08-19T04:26:56;14.27;;;10.93;;
49510;SDS011;35413;48.776;9.204;2022-08-19T04:29:25;13.48;;;10.82;;
49510;SDS011;35413;48.776;9.204;2022-08-19T04:31:52;14.32;;;11.20;;
49510;SDS011;35413;48.776;9.204;2022-08-19T04:34:19;12.40;;;10.45;;
49510;SDS011;35413;48.776;9.204;2022-08-19T04:36:47;15.75;;;11.93;;
49510;SDS011;35413;48.776;9.204;2022-08-19T04:39:15;13.18;;;10.38;;
49510;SDS011;35413;48.776;9.204;2022-08-19T04:41:42;13.38;;;10.30;;
49510;SDS011;35413;48.776;9.204;2022-08-19T04:44:27;13.20;;;11.05;;
49510;SDS011;35413;48.776;9.204;2022-08-19T04:46:55;14.05;;;11.15;;
49510;SDS011;35413;48.776;9.204;2022-08-19T04:49:22;14.13;;;10.82;;
49510;SDS011;35413;48.776;9.204;2022-08-19T04:51:49;15.32;;;12.15;;
49510;SDS011;35413;48.776;9.204;2022-08-19T04:54:19;14.77;;;11.95;;
49510;SDS011;35413;48.776;9.204;2022-08-19T04:56:47;16.98;;;12.77;;
49510;SDS011;35413;48.776;9.204;2022-08-19T04:59:14;15.13;;;12.13;;
49510;SDS011;35413;48.776;9.204;2022-08-19T05:01:42;15.75;;;12.00;;
49510;SDS011;35413;48.776;9.204;2022-08-19T05:04:08;14.82;;;11.60;;
49510;SDS011;35413;48.776;9.204;2022-08-19T05:06:34;18.83;;;13.75;;
49510;SDS011;35413;48.776;9.204;2022-08-19T05:09:01;15.55;;;11.98;;
49510;SDS011;35413;48.776;9.204;2022-08-19T05:11:31;14.98;;;12.32;;
49510;SDS011;35413;48.776;9.204;2022-08-19T05:13:59;14.90;;;11.10;;
49510;SDS011;35413;48.776;9.204;2022-08-19T05:16:25;14.07;;;12.13;;
49510;SDS011;35413;48.776;9.204;2022-08-19T05:18:52;14.48;;;11.88;;
49510;SDS011;35413;48.776;9.204;2022-08-19T05:21:36;14.88;;;12.02;;
49510;SDS011;35413;48.776;9.204;2022-08-19T05:24:22;15.07;;;11.85;;
49510;SDS011;35413;48.776;9.204;2022-08-19T05:26:49;14.88;;;12.30;;
49510;SDS011;35413;48.776;9.204;2022-08-19T05:29:18;13.65;;;11.68;;
49510;SDS011;35413;48.776;9.204;2022-08-19T05:31:45;14.65;;;11.40;;
49510;SDS011;35413;48.776;9.204;2022-08-19T05:34:12;17.23;;;12.13;;
49510;SDS011;35413;48.776;9.204;2022-08-19T05:36:39;16.73;;;13.15;;
49510;SDS011;35413;48.776;9.204;2022-08-19T05:39:08;16.08;;;12.23;;
49510;SDS011;35413;48.776;9.204;2022-08-19T05:41:36;15.80;;;12.10;;
49510;SDS011;35413;48.776;9.204;2022-08-19T05:44:06;14.70;;;11.67;;
49510;SDS011;35413;48.776;9.204;2022-08-19T05:46:34;14.23;;;11.02;;
49510;SDS011;35413;48.776;9.204;2022-08-19T05:49:02;13.23;;;11.70;;
49510;SDS011;35413;48.776;9.204;2022-08-19T05:51:29;15.88;;;12.20;;
49510;SDS011;35413;48.776;9.204;2022-08-19T05:53:55;15.43;;;12.30;;
49510;SDS011;35413;48.776;9.204;2022-08-19T05:56:21;15.55;;;11.20;;
49510;SDS011;35413;48.776;9.204;2022-08-19T05:58:46;21.02;;;14.52;;
49510;SDS011;35413;48.776;9.204;2022-08-19T06:01:13;29.25;;;13.70;;
49510;SDS011;35413;48.776;9.204;2022-08-19T06:03:41;17.85;;;13.20;;
49510;SDS011;35413;48.776;9.204;2022-08-19T06:06:08;18.40;;;13.57;;
49510;SDS011;35413;48.776;9.204;2022-08-19T06:08:38;17.03;;;12.77;;
49510;SDS011;35413;48.776;9.204;2022-08-19T06:13:48;18.63;;;12.77;;
49510;SDS011;35413;48.776;9.204;2022-08-19T06:16:20;13.95;;;11.57;;
49510;SDS011;35413;48.776;9.204;2022-08-19T06:18:50;15.73;;;12.18;;
49510;SDS011;35413;48.776;9.204;2022-08-19T06:21:20;18.42;;;12.57;;
49510;SDS011;35413;48.776;9.204;2022-08-19T06:23:47;14.20;;;11.65;;
49510;SDS011;35413;48.776;9.204;2022-08-19T06:26:14;16.77;;;13.32;;
49510;SDS011;35413;48.776;9.204;2022-08-19T06:28:41;15.93;;;12.70;;
49510;SDS011;35413;48.776;9.204;2022-08-19T06:31:07;18.90;;;11.95;;
49510;SDS011;35413;48.776;9.204;2022-08-19T06:33:33;14.85;;;10.88;;
49510;SDS011;35413;48.776;9.204;2022-08-19T06:35:59;14.75;;;10.63;;
49510;SDS011;35413;48.776;9.204;2022-08-19T06:38:25;13.60;;;10.10;;
49510;SDS011;35413;48.776;9.204;2022-08-19T06:40:51;13.05;;;10.20;;
49510;SDS011;35413;48.776;9.204;2022-08-19T06:43:24;11.32;;;9.90;;
49510;SDS011;35413;48.776;9.204;2022-08-19T06:45:49;13.10;;;10.63;;
49510;SDS011;35413;48.776;9.204;2022-08-19T06:48:16;12.30;;;9.77;;
49510;SDS011;35413;48.776;9.204;2022-08-19T06:50:43;11.70;;;9.18;;
49510;SDS011;35413;48.776;9.204;2022-08-19T06:53:08;11.93;;;10.00;;
49510;SDS011;35413;48.776;9.204;2022-08-19T06:55:34;14.80;;;10.40;;
49510;SDS011;35413;48.776;9.204;2022-08-19T06:58:03;12.50;;;9.93;;
49510;SDS011;35413;48.776;9.204;2022-08-19T07:00:29;13.60;;;10.23;;
49510;SDS011;35413;48.776;9.204;2022-08-19T07:02:55;12.65;;;10.02;;
49510;SDS011;35413;48.776;9.204;2022-08-19T07:05:20;14.55;;;10.45;;
49510;SDS011;35413;48.776;9.204;2022-08-19T07:07:46;11.45;;;9.30;;
49510;SDS011;35413;48.776;9.204;2022-08-19T07:10:12;12.27;;;10.13;;
49510;SDS011;35413;48.776;9.204;2022-08-19T07:12:37;17.98;;;10.88;;
49510;SDS011;35413;48.776;9.204;2022-08-19T07:15:04;14.75;;;10.23;;
49510;SDS011;35413;48.776;9.204;2022-08-19T07:17:31;16.92;;;9.70;;
49510;SDS011;35413;48.776;9.204;2022-08-19T07:19:56;13.70;;;9.88;;
49510;SDS011;35413;48.776;9.204;2022-08-19T07:22:23;15.13;;;10.23;;
49510;SDS011;35413;48.776;9.204;2022-08-19T07:24:48;17.60;;;9.27;;
49510;SDS011;35413;48.776;9.204;2022-08-19T07:27:14;19.55;;;9.35;;
49510;SDS011;35413;48.776;9.204;2022-08-19T07:29:40;16.45;;;9.77;;
49510;SDS011;35413;48.776;9.204;2022-08-19T07:32:05;14.13;;;9.75;;
49510;SDS011;35413;48.776;9.204;2022-08-19T07:34:31;15.40;;;9.52;;
49510;SDS011;35413;48.776;9.204;2022-08-19T07:37:01;16.13;;;9.00;;
49510;SDS011;35413;48.776;9.204;2022-08-19T07:39:29;14.20;;;9.07;;
49510;SDS011;35413;48.776;9.204;2022-08-19T07:41:57;13.60;;;9.85;;
49510;SDS011;35413;48.776;9.204;2022-08-19T07:44:25;12.25;;;9.80;;
49510;SDS011;35413;48.776;9.204;2022-08-19T07:46:53;13.85;;;10.00;;
49510;SDS011;35413;48.776;9.204;2022-08-19T07:49:21;12.57;;;9.68;;
49510;SDS011;35413;48.776;9.204;2022-08-19T07:51:49;13.57;;;9.32;;
49510;SDS011;35413;48.776;9.204;2022-08-19T07:54:17;13.85;;;9.75;;
49510;SDS011;35413;48.776;9.204;2022-08-19T07:56:44;14.38;;;8.40;;
49510;SDS011;35413;48.776;9.204;2022-08-19T07:59:11;12.23;;;8.73;;
49510;SDS011;35413;48.776;9.204;2022-08-19T08:01:37;14.23;;;9.68;;
49510;SDS011;35413;48.776;9.204;2022-08-19T08:04:05;17.55;;;9.90;;
49510;SDS011;35413;48.776;9.204;2022-08-19T08:07:01;16.27;;;9.20;;
49510;SDS011;35413;48.776;9.204;2022-08-19T08:09:46;12.02;;;9.13;;
49510;SDS011;35413;48.776;9.204;2022-08-19T08:12:16;12.10;;;8.65;;
49510;SDS011;35413;48.776;9.204;2022-08-19T08:14:48;12.00;;;8.88;;
49510;SDS011;35413;48.776;9.204;2022-08-19T08:17:17;12.13;;;9.07;;
49510;SDS011;35413;48.776;9.204;2022-08-19T08:19:44;16.48;;;9.65;;
49510;SDS011;35413;48.776;9.204;2022-08-19T08:22:11;11.50;;;9.23;;
49510;SDS011;35413;48.776;9.204;2022-08-19T08:25:32;11.15;;;8.85;;
49510;SDS011;35413;48.776;9.204;2022-08-19T08:27:51;9.88;;;8.23;;
49510;SDS011;35413;48.776;9.204;2022-08-19T08:30:18;13.95;;;8.88;;
49510;SDS011;35413;48.776;9.204;2022-08-19T08:32:46;11.95;;;9.27;;
49510;SDS011;35413;48.776;9.204;2022-08-19T08:35:13;14.20;;;9.18;;
49510;SDS011;35413;48.776;9.204;2022-08-19T08:37:41;14.10;;;8.65;;
49510;SDS011;35413;48.776;9.204;2022-08-19T08:40:30;11.32;;;8.70;;
49510;SDS011;35413;48.776;9.204;2022-08-19T08:43:44;15.65;;;8.60;;
49510;SDS011;35413;48.776;9.204;2022-08-19T08:48:36;12.35;;;8.07;;
49510;SDS011;35413;48.776;9.204;2022-08-19T08:51:11;15.85;;;9.57;;
49510;SDS011;35413;48.776;9.204;2022-08-19T08:54:03;12.77;;;8.48;;
49510;SDS011;35413;48.776;9.204;2022-08-19T08:56:31;13.18;;;8.48;;
49510;SDS011;35413;48.776;9.204;2022-08-19T09:01:37;10.65;;;8.38;;
49510;SDS011;35413;48.776;9.204;2022-08-19T09:04:06;12.98;;;8.88;;
49510;SDS011;35413;48.776;9.204;2022-08-19T09:13:06;11.90;;;9.55;;
49510;SDS011;35413;48.776;9.204;2022-08-19T09:15:25;10.02;;;8.30;;
49510;SDS011;35413;48.776;9.204;2022-08-19T09:18:01;12.07;;;8.50;;
49510;SDS011;35413;48.776;9.204;2022-08-19T09:20:28;11.10;;;8.30;;
49510;SDS011;35413;48.776;9.204;2022-08-19T09:22:55;9.05;;;7.95;;
49510;SDS011;35413;48.776;9.204;2022-08-19T09:25:22;10.60;;;7.53;;
49510;SDS011;35413;48.776;9.204;2022-08-19T09:27:48;10.70;;;8.50;;
49510;SDS011;35413;48.776;9.204;2022-08-19T09:30:17;8.70;;;7.80;;
49510;SDS011;35413;48.776;9.204;2022-08-19T09:32:46;11.82;;;7.88;;
49510;SDS011;35413;48.776;9.204;2022-08-19T09:35:13;12.52;;;8.48;;
49510;SDS011;35413;48.776;9.204;2022-08-19T09:37:40;13.60;;;8.85;;
49510;SDS011;35413;48.776;9.204;2022-08-19T09:40:07;9.63;;;7.88;;
49510;SDS011;35413;48.776;9.204;2022-08-19T09:42:33;10.85;;;7.80;;
49510;SDS011;35413;48.776;9.204;2022-08-19T09:44:59;12.73;;;9.02;;
49510;SDS011;35413;48.776;9.204;2022-08-19T09:47:25;15.60;;;8.30;;
49510;SDS011;35413;48.776;9.204;2022-08-19T09:49:50;11.10;;;8.23;;
49510;SDS011;35413;48.776;9.204;2022-08-19T09:52:16;11.63;;;8.55;;
49510;SDS011;35413;48.776;9.204;2022-08-19T09:54:43;14.05;;;7.43;;
49510;SDS011;35413;48.776;9.204;2022-08-19T09:57:08;14.25;;;8.05;;
49510;SDS011;35413;48.776;9.204;2022-08-19T09:59:34;9.52;;;7.63;;
49510;SDS011;35413;48.776;9.204;2022-08-19T10:02:00;11.18;;;7.50;;
49510;SDS011;35413;48.776;9.204;2022-08-19T10:04:26;13.73;;;8.48;;
49510;SDS011;35413;48.776;9.204;2022-08-19T10:07:11;11.77;;;7.47;;
49510;SDS011;35413;48.776;9.204;2022-08-19T10:09:37;10.15;;;7.28;;
49510;SDS011;35413;48.776;9.204;2022-08-19T10:12:03;9.70;;;7.43;;
49510;SDS011;35413;48.776;9.204;2022-08-19T10:14:30;8.63;;;7.13;;
49510;SDS011;35413;48.776;9.204;2022-08-19T10:16:56;9.35;;;7.20;;
49510;SDS011;35413;48.776;9.204;2022-08-19T10:19:22;9.63;;;6.18;;
49510;SDS011;35413;48.776;9.204;2022-08-19T10:21:47;9.45;;;7.43;;
49510;SDS011;35413;48.776;9.204;2022-08-19T10:24:13;10.57;;;7.53;;
49510;SDS011;35413;48.776;9.204;2022-08-19T10:26:39;10.27;;;7.25;;
49510;SDS011;35413;48.776;9.204;2022-08-19T10:29:12;10.93;;;6.75;;
49510;SDS011;35413;48.776;9.204;2022-08-19T10:31:40;12.98;;;7.82;;
49510;SDS011;35413;48.776;9.204;2022-08-19T10:34:07;8.32;;;6.88;;
49510;SDS011;35413;48.776;9.204;2022-08-19T10:36:34;10.10;;;7.15;;
49510;SDS011;35413;48.776;9.204;2022-08-19T10:39:03;9.23;;;6.70;;
49510;SDS011;35413;48.776;9.204;2022-08-19T10:41:32;9.35;;;7.22;;
49510;SDS011;35413;48.776;9.204;2022-08-19T10:44:04;20.23;;;8.30;;
49510;SDS011;35413;48.776;9.204;2022-08-19T10:46:31;10.15;;;6.63;;
49510;SDS011;35413;48.776;9.204;2022-08-19T10:48:59;8.70;;;6.55;;
49510;SDS011;35413;48.776;9.204;2022-08-19T10:51:26;10.25;;;6.72;;
49510;SDS011;35413;48.776;9.204;2022-08-19T10:54:10;7.55;;;6.38;;
49510;SDS011;35413;48.776;9.204;2022-08-19T10:56:36;6.97;;;5.63;;
49510;SDS011;35413;48.776;9.204;2022-08-19T10:59:27;9.67;;;6.50;;
49510;SDS011;35413;48.776;9.204;2022-08-19T11:01:54;11.05;;;7.22;;
49510;SDS011;35413;48.776;9.204;2022-08-19T11:04:24;8.20;;;6.22;;
49510;SDS011;35413;48.776;9.204;2022-08-19T11:06:50;8.95;;;6.10;;
49510;SDS011;35413;48.776;9.204;2022-08-19T11:09:18;8.25;;;5.85;;
49510;SDS011;35413;48.776;9.204;2022-08-19T11:11:50;9.57;;;6.13;;
49510;SDS011;35413;48.776;9.204;2022-08-19T11:14:18;11.57;;;6.10;;
49510;SDS011;35413;48.776;9.204;2022-08-19T11:16:45;8.63;;;6.30;;
49510;SDS011;35413;48.776;9.204;2022-08-19T11:19:12;9.57;;;6.22;;
49510;SDS011;35413;48.776;9.204;2022-08-19T11:21:42;9.30;;;6.97;;
49510;SDS011;35413;48.776;9.204;2022-08-19T11:24:20;9.00;;;6.43;;
49510;SDS011;35413;48.776;9.204;2022-08-19T11:26:48;10.13;;;5.97;;
49510;SDS011;35413;48.776;9.204;2022-08-19T11:29:16;7.03;;;5.55;;
49510;SDS011;35413;48.776;9.204;2022-08-19T11:31:45;8.35;;;5.32;;
49510;SDS011;35413;48.776;9.204;2022-08-19T11:34:16;8.82;;;6.10;;
49510;SDS011;35413;48.776;9.204;2022-08-19T11:36:45;10.93;;;5.35;;
49510;SDS011;35413;48.776;9.204;2022-08-19T11:39:13;6.30;;;5.55;;
49510;SDS011;35413;48.776;9.204;2022-08-19T11:41:40;7.95;;;5.28;;
49510;SDS011;35413;48.776;9.204;2022-08-19T11:44:06;6.80;;;5.30;;
49510;SDS011;35413;48.776;9.204;2022-08-19T11:46:33;6.78;;;5.15;;
49510;SDS011;35413;48.776;9.204;2022-08-19T11:49:02;6.10;;;4.85;;
49510;SDS011;35413;48.776;9.204;2022-08-19T11:51:30;6.32;;;5.18;;
49510;SDS011;35413;48.776;9.204;2022-08-19T11:53:57;7.20;;;5.32;;
49510;SDS011;35413;48.776;9.204;2022-08-19T11:56:24;7.90;;;5.10;;
49510;SDS011;35413;48.776;9.204;2022-08-19T11:58:51;6.47;;;4.68;;
49510;SDS011;35413;48.776;9.204;2022-08-19T12:01:19;6.47;;;4.90;;
49510;SDS011;35413;48.776;9.204;2022-08-19T12:03:46;6.97;;;4.90;;
49510;SDS011;35413;48.776;9.204;2022-08-19T12:06:15;6.53;;;5.30;;
49510;SDS011;35413;48.776;9.204;2022-08-19T12:08:43;8.30;;;5.80;;
49510;SDS011;35413;48.776;9.204;2022-08-19T12:11:09;7.25;;;6.10;;
49510;SDS011;35413;48.776;9.204;2022-08-19T12:13:38;8.13;;;5.55;;
49510;SDS011;35413;48.776;9.204;2022-08-19T12:16:08;8.75;;;5.53;;
49510;SDS011;35413;48.776;9.204;2022-08-19T12:18:36;7.28;;;5.95;;
49510;SDS011;35413;48.776;9.204;2022-08-19T12:21:02;9.18;;;5.97;;
49510;SDS011;35413;48.776;9.204;2022-08-19T12:23:28;9.65;;;6.55;;
49510;SDS011;35413;48.776;9.204;2022-08-19T12:25:54;8.80;;;5.70;;
49510;SDS011;35413;48.776;9.204;2022-08-19T12:28:22;8.75;;;5.97;;
49510;SDS011;35413;48.776;9.204;2022-08-19T12:30:49;8.25;;;5.80;;
49510;SDS011;35413;48.776;9.204;2022-08-19T12:33:16;8.90;;;6.35;;
49510;SDS011;35413;48.776;9.204;2022-08-19T12:35:43;7.13;;;5.70;;
49510;SDS011;35413;48.776;9.204;2022-08-19T12:38:11;9.65;;;6.32;;
49510;SDS011;35413;48.776;9.204;2022-08-19T12:40:37;7.45;;;6.28;;
49510;SDS011;35413;48.776;9.204;2022-08-19T12:43:05;8.20;;;6.15;;
49510;SDS011;35413;48.776;9.204;2022-08-19T12:45:31;7.75;;;6.10;;
49510;SDS011;35413;48.776;9.204;2022-08-19T12:47:58;10.10;;;5.82;;
49510;SDS011;35413;48.776;9.204;2022-08-19T12:50:24;9.27;;;6.07;;
49510;SDS011;35413;48.776;9.204;2022-08-19T12:52:49;10.25;;;6.47;;
49510;SDS011;35413;48.776;9.204;2022-08-19T12:55:15;10.70;;;6.65;;
49510;SDS011;35413;48.776;9.204;2022-08-19T12:57:43;9.90;;;6.95;;
49510;SDS011;35413;48.776;9.204;2022-08-19T13:00:13;9.90;;;6.90;;
49510;SDS011;35413;48.776;9.204;2022-08-19T13:02:41;7.80;;;5.88;;
49510;SDS011;35413;48.776;9.204;2022-08-19T13:05:11;9.27;;;6.57;;
49510;SDS011;35413;48.776;9.204;2022-08-19T13:10:09;9.57;;;6.25;;
49510;SDS011;35413;48.776;9.204;2022-08-19T13:12:36;9.23;;;6.53;;
49510;SDS011;35413;48.776;9.204;2022-08-19T13:15:03;7.30;;;6.22;;
49510;SDS011;35413;48.776;9.204;2022-08-19T13:17:29;7.65;;;6.30;;
49510;SDS011;35413;48.776;9.204;2022-08-19T13:19:55;7.20;;;5.82;;
49510;SDS011;35413;48.776;9.204;2022-08-19T13:22:20;9.02;;;6.70;;
49510;SDS011;35413;48.776;9.204;2022-08-19T13:24:46;7.15;;;6.28;;
49510;SDS011;35413;48.776;9.204;2022-08-19T13:27:13;9.68;;;7.28;;
49510;SDS011;35413;48.776;9.204;2022-08-19T13:29:39;10.45;;;7.53;;
49510;SDS011;35413;48.776;9.204;2022-08-19T13:32:24;13.35;;;9.70;;
49510;SDS011;35413;48.776;9.204;2022-08-19T13:35:08;12.75;;;9.40;;
49510;SDS011;35413;48.776;9.204;2022-08-19T13:37:34;13.18;;;9.10;;
49510;SDS011;35413;48.776;9.204;2022-08-19T13:40:11;13.05;;;9.57;;
49510;SDS011;35413;48.776;9.204;2022-08-19T13:42:43;13.55;;;9.48;;
49510;SDS011;35413;48.776;9.204;2022-08-19T13:45:12;10.70;;;8.40;;
49510;SDS011;35413;48.776;9.204;2022-08-19T13:47:40;11.02;;;8.05;;
49510;SDS011;35413;48.776;9.204;2022-08-19T13:50:10;12.82;;;9.93;;
49510;SDS011;35413;48.776;9.204;2022-08-19T13:52:37;15.25;;;11.38;;
49510;SDS011;35413;48.776;9.204;2022-08-19T13:55:04;12.32;;;10.05;;
49510;SDS011;35413;48.776;9.204;2022-08-19T13:57:31;17.23;;;11.23;;
49510;SDS011;35413;48.776;9.204;2022-08-19T14:00:00;16.85;;;10.98;;
49510;SDS011;35413;48.776;9.204;2022-08-19T14:02:27;13.20;;;10.40;;
49510;SDS011;35413;48.776;9.204;2022-08-19T14:04:52;14.60;;;9.38;;
49510;SDS011;35413;48.776;9.204;2022-08-19T14:07:18;12.63;;;8.93;;
49510;SDS011;35413;48.776;9.204;2022-08-19T14:09:45;11.30;;;9.23;;
49510;SDS011;35413;48.776;9.204;2022-08-19T14:12:10;13.13;;;9.50;;
49510;SDS011;35413;48.776;9.204;2022-08-19T14:14:36;13.05;;;9.75;;
49510;SDS011;35413;48.776;9.204;2022-08-19T14:17:06;14.70;;;11.50;;
49510;SDS011;35413;48.776;9.204;2022-08-19T14:19:33;14.38;;;12.20;;
49510;SDS011;35413;48.776;9.204;2022-08-19T14:21:58;15.98;;;12.73;;
49510;SDS011;35413;48.776;9.204;2022-08-19T14:24:24;18.85;;;13.85;;
49510;SDS011;35413;48.776;9.204;2022-08-19T14:26:53;19.75;;;15.05;;
49510;SDS011;35413;48.776;9.204;2022-08-19T14:29:18;16.95;;;14.23;;
49510;SDS011;35413;48.776;9.204;2022-08-19T14:31:44;21.63;;;14.82;;
49510;SDS011;35413;48.776;9.204;2022-08-19T14:34:09;18.80;;;13.82;;
49510;SDS011;35413;48.776;9.204;2022-08-19T14:36:36;19.02;;;14.63;;
49510;SDS011;35413;48.776;9.204;2022-08-19T14:39:02;20.30;;;14.27;;
49510;SDS011;35413;48.776;9.204;2022-08-19T14:41:28;20.88;;;14.32;;
49510;SDS011;35413;48.776;9.204;2022-08-19T14:43:55;16.65;;;13.52;;
49510;SDS011;35413;48.776;9.204;2022-08-19T14:46:22;17.85;;;14.32;;
49510;SDS011;35413;48.776;9.204;2022-08-19T14:48:51;17.48;;;13.15;;
49510;SDS011;35413;48.776;9.204;2022-08-19T14:51:19;18.88;;;12.68;;
49510;SDS011;35413;48.776;9.204;2022-08-19T14:53:46;17.20;;;12.43;;
49510;SDS011;35413;48.776;9.204;2022-08-19T14:56:16;17.65;;;13.32;;
49510;SDS011;35413;48.776;9.204;2022-08-19T14:58:44;17.48;;;12.95;;
49510;SDS011;35413;48.776;9.204;2022-08-19T15:01:10;18.38;;;12.80;;